Time;durP1;ratioP1;P1;durP2;ratioP2;P2;SDS_P1;SDS_P2;PMS_P1;PMS_P2;Temp;Humidity;BMP_temperature;BMP_pressure;BME280_temperature;BME280_humidity;BME280_pressure;Samples;Min_cycle;Max_cycle;Signal;HPM_P1;HPM_P2
2022/07/18 00:01:28;;;;;;;10.02;7.30;;;15.80;99.90;;;;;;4984579;28;20057;-65
2022/07/18 00:03:54;;;;;;;10.38;7.65;;;15.90;99.90;;;;;;4977872;28;20066;-66
2022/07/18 00:06:20;;;;;;;12.68;8.15;;;15.80;99.90;;;;;;4980144;28;20118;-66
2022/07/18 00:08:45;;;;;;;11.68;8.18;;;15.90;99.90;;;;;;4972635;28;20130;-66
2022/07/18 00:11:11;;;;;;;11.07;7.70;;;15.90;99.90;;;;;;4979446;28;20129;-66
2022/07/18 00:13:37;;;;;;;11.35;7.85;;;15.90;99.90;;;;;;4982712;28;20035;-65
2022/07/18 00:16:03;;;;;;;10.85;8.02;;;16.00;99.90;;;;;;4990276;28;20038;-65
2022/07/18 00:18:29;;;;;;;11.20;7.55;;;16.00;99.90;;;;;;4973904;28;20038;-66
2022/07/18 00:20:55;;;;;;;10.43;6.95;;;16.00;99.90;;;;;;4991713;28;20042;-65
2022/07/18 00:23:20;;;;;;;9.77;6.50;;;15.90;99.90;;;;;;4987355;28;20074;-65
2022/07/18 00:25:46;;;;;;;9.48;6.15;;;15.80;99.90;;;;;;4987353;28;20117;-66
2022/07/18 00:28:12;;;;;;;9.38;6.72;;;15.70;99.90;;;;;;4983533;28;20041;-65
2022/07/18 00:30:39;;;;;;;11.02;7.15;;;15.70;99.90;;;;;;4975659;28;20399;-66
2022/07/18 00:33:04;;;;;;;11.73;7.78;;;15.70;99.90;;;;;;4972777;28;20105;-66
2022/07/18 00:35:30;;;;;;;11.30;6.82;;;15.70;99.90;;;;;;4972146;28;20506;-65
2022/07/18 00:37:56;;;;;;;10.15;5.38;;;15.70;99.90;;;;;;4984362;28;20057;-66
2022/07/18 00:40:21;;;;;;;13.02;6.32;;;15.60;99.90;;;;;;4992614;28;20093;-65
2022/07/18 00:42:47;;;;;;;8.27;5.53;;;15.40;99.90;;;;;;4977682;28;20038;-66
2022/07/18 00:45:13;;;;;;;8.68;5.78;;;15.30;99.90;;;;;;4987345;28;20042;-65
2022/07/18 00:47:39;;;;;;;6.60;4.40;;;15.20;99.90;;;;;;4991843;28;20085;-66
2022/07/18 00:50:06;;;;;;;6.05;4.28;;;15.10;99.90;;;;;;4992620;28;20038;-66
2022/07/18 00:52:33;;;;;;;7.43;4.68;;;15.10;99.90;;;;;;4983621;28;20410;-65
2022/07/18 00:54:59;;;;;;;5.20;3.72;;;15.10;99.90;;;;;;4972120;28;20048;-66
2022/07/18 00:57:26;;;;;;;6.30;4.25;;;15.00;99.90;;;;;;4971724;28;20035;-66
2022/07/18 01:02:37;;;;;;;8.48;4.90;;;14.80;99.90;;;;;;4983959;28;20054;-66
2022/07/18 01:05:03;;;;;;;7.07;5.38;;;14.70;99.90;;;;;;4991732;28;20050;-67
2022/07/18 01:07:29;;;;;;;9.55;5.60;;;14.60;99.90;;;;;;4992109;28;20487;-64
2022/07/18 01:09:55;;;;;;;8.65;6.07;;;14.70;99.90;;;;;;4976991;28;20107;-67
2022/07/18 01:12:20;;;;;;;9.27;5.20;;;14.60;99.90;;;;;;4985621;28;20454;-66
2022/07/18 01:14:47;;;;;;;9.13;5.40;;;14.60;99.90;;;;;;4991890;28;20046;-64
2022/07/18 01:17:18;;;;;;;4.25;2.80;;;14.60;99.90;;;;;;4976327;28;20042;-65
2022/07/18 01:19:44;;;;;;;;;;;14.40;99.90;;;;;;4991887;28;20641;-64
2022/07/18 01:22:12;;;;;;;5.38;3.15;;;14.20;99.90;;;;;;4991687;28;20015;-65
2022/07/18 01:24:38;;;;;;;3.45;2.90;;;14.20;99.90;;;;;;4991923;28;20053;-65
2022/07/18 01:27:04;;;;;;;3.70;2.83;;;14.20;99.90;;;;;;4979233;28;20042;-65
2022/07/18 01:29:30;;;;;;;8.90;4.22;;;14.10;99.90;;;;;;4975569;28;20184;-64
2022/07/18 01:31:55;;;;;;;12.43;6.65;;;14.20;99.90;;;;;;4972264;28;20121;-65
2022/07/18 01:34:22;;;;;;;12.60;8.38;;;14.20;99.90;;;;;;4976351;28;20105;-65
2022/07/18 01:36:49;;;;;;;13.98;9.48;;;14.20;99.90;;;;;;4971910;28;20042;-64
2022/07/18 01:39:14;;;;;;;13.98;9.43;;;14.30;99.90;;;;;;4974319;28;20039;-65
2022/07/18 01:41:40;;;;;;;13.93;8.63;;;14.30;99.90;;;;;;4973668;28;20092;-64
2022/07/18 01:44:06;;;;;;;11.77;7.55;;;14.30;99.90;;;;;;4973642;28;20514;-65
2022/07/18 01:46:32;;;;;;;13.30;7.20;;;14.20;99.90;;;;;;4974530;28;20054;-65
2022/07/18 01:48:58;;;;;;;12.75;7.65;;;14.20;99.90;;;;;;4976556;28;20043;-66
2022/07/18 01:51:23;;;;;;;12.35;7.68;;;14.00;99.90;;;;;;4983365;28;20034;-66
2022/07/18 01:54:01;;;;;;;13.00;7.88;;;14.10;99.90;;;;;;4992670;28;20038;-66
2022/07/18 01:56:27;;;;;;;13.43;8.45;;;14.10;99.90;;;;;;4995540;28;20042;-65
2022/07/18 01:58:52;;;;;;;13.55;8.88;;;14.10;99.90;;;;;;4984894;28;20038;-64
2022/07/18 02:01:18;;;;;;;11.63;7.78;;;14.10;99.90;;;;;;4983871;28;20046;-65
2022/07/18 02:03:44;;;;;;;11.98;8.40;;;14.00;99.90;;;;;;4991456;28;20040;-65
2022/07/18 02:06:09;;;;;;;12.00;6.82;;;14.00;99.90;;;;;;4989542;28;20063;-66
2022/07/18 02:08:35;;;;;;;9.60;6.80;;;13.90;99.90;;;;;;4976808;28;20035;-66
2022/07/18 02:11:01;;;;;;;11.18;6.88;;;13.90;99.90;;;;;;4993500;28;20035;-66
2022/07/18 02:13:26;;;;;;;13.10;8.48;;;13.90;99.90;;;;;;4994178;28;20767;-66
2022/07/18 02:15:55;;;;;;;13.23;8.52;;;14.00;99.90;;;;;;4988515;28;20503;-65
2022/07/18 02:18:21;;;;;;;15.23;9.75;;;13.90;99.90;;;;;;4994365;28;20045;-64
2022/07/18 02:20:46;;;;;;;11.40;8.40;;;13.90;99.90;;;;;;4994591;28;20040;-66
2022/07/18 02:23:12;;;;;;;11.10;7.85;;;13.90;99.90;;;;;;4987011;28;20491;-64
2022/07/18 02:25:38;;;;;;;10.05;6.78;;;13.80;99.90;;;;;;4988546;28;20434;-64
2022/07/18 02:28:04;;;;;;;9.02;6.28;;;13.80;99.90;;;;;;4994869;28;20034;-64
2022/07/18 02:30:30;;;;;;;11.40;6.85;;;13.60;99.90;;;;;;4994002;28;20438;-65
2022/07/18 02:32:56;;;;;;;8.70;6.32;;;13.50;99.90;;;;;;4987772;28;20098;-64
2022/07/18 02:35:22;;;;;;;10.63;7.45;;;13.50;99.90;;;;;;4988554;28;20121;-65
2022/07/18 02:37:47;;;;;;;12.02;8.00;;;13.50;99.90;;;;;;4976465;28;20050;-65
2022/07/18 02:40:13;;;;;;;11.98;7.57;;;13.50;99.90;;;;;;4977803;28;20388;-66
2022/07/18 02:42:39;;;;;;;11.18;7.18;;;13.50;99.90;;;;;;4973161;28;20601;-66
2022/07/18 02:45:06;;;;;;;13.25;7.85;;;13.40;99.90;;;;;;4974806;28;20505;-66
2022/07/18 02:47:32;;;;;;;12.13;7.60;;;13.40;99.90;;;;;;4975353;28;20031;-65
2022/07/18 02:49:58;;;;;;;12.80;8.48;;;13.30;99.90;;;;;;4980625;28;20035;-65
2022/07/18 02:52:23;;;;;;;14.25;9.05;;;13.20;99.90;;;;;;4988582;28;20050;-65
2022/07/18 02:54:49;;;;;;;12.75;9.48;;;13.20;99.90;;;;;;4994141;28;20039;-65
2022/07/18 02:57:15;;;;;;;17.02;9.27;;;13.10;99.90;;;;;;4980076;28;20057;-65
2022/07/18 02:59:40;;;;;;;14.18;9.05;;;13.00;99.90;;;;;;4983571;28;20169;-66
2022/07/18 03:02:06;;;;;;;14.25;9.05;;;12.90;99.90;;;;;;4980997;28;20565;-65
2022/07/18 03:04:32;;;;;;;14.93;9.10;;;12.90;99.90;;;;;;4974881;28;20078;-66
2022/07/18 03:06:58;;;;;;;12.13;8.10;;;12.80;99.90;;;;;;4979935;28;20116;-65
2022/07/18 03:09:26;;;;;;;14.90;9.32;;;12.90;99.90;;;;;;4993810;28;20142;-65
2022/07/18 03:11:54;;;;;;;20.55;10.68;;;12.90;99.90;;;;;;4993672;28;20039;-65
2022/07/18 03:14:20;;;;;;;16.42;9.85;;;13.10;99.90;;;;;;4984979;28;20098;-66
2022/07/18 03:16:46;;;;;;;15.30;8.82;;;13.10;99.90;;;;;;4972759;28;20468;-65
2022/07/18 03:19:11;;;;;;;13.75;8.85;;;13.00;99.90;;;;;;4978060;28;20089;-64
2022/07/18 03:21:37;;;;;;;16.23;9.38;;;12.90;99.90;;;;;;4983372;28;20097;-65
2022/07/18 03:24:03;;;;;;;13.80;8.35;;;12.90;99.90;;;;;;4992937;28;20043;-66
2022/07/18 03:26:29;;;;;;;14.40;8.13;;;13.00;99.90;;;;;;4994168;28;20038;-65
2022/07/18 03:28:55;;;;;;;12.88;8.77;;;12.90;99.90;;;;;;4986236;28;20045;-65
2022/07/18 03:31:21;;;;;;;12.68;8.55;;;12.90;99.90;;;;;;4979610;28;20061;-64
2022/07/18 03:33:46;;;;;;;15.80;9.30;;;12.90;99.90;;;;;;4990445;28;20044;-65
2022/07/18 03:36:12;;;;;;;17.85;10.23;;;13.00;99.90;;;;;;4993588;28;20073;-66
2022/07/18 03:38:42;;;;;;;19.58;10.70;;;13.20;99.90;;;;;;4987359;28;20518;-66
2022/07/18 03:41:09;;;;;;;17.73;10.20;;;13.30;99.90;;;;;;4979495;28;20187;-66
2022/07/18 03:51:21;;;;;;;17.02;8.00;;;13.50;99.90;;;;;;5409304;23;20059;-67
2022/07/18 04:25:20;;;;;;;15.35;8.43;;;13.60;99.90;;;;;;5265492;23;20055;-67
2022/07/18 04:27:47;;;;;;;18.70;8.73;;;13.60;99.90;;;;;;4954010;28;20415;-67
2022/07/18 05:15:12;;;;;;;18.55;9.02;;;15.70;99.90;;;;;;5983796;23;20019;-69
2022/07/18 05:25:24;;;;;;;15.98;8.95;;;16.00;99.90;;;;;;5122400;23;20058;-68
2022/07/18 05:31:05;;;;;;;15.88;8.65;;;16.10;99.90;;;;;;5565809;23;20050;-68
2022/07/18 05:33:31;;;;;;;15.82;9.20;;;16.20;99.90;;;;;;4960778;28;20054;-68
2022/07/18 05:35:56;;;;;;;21.52;8.93;;;16.30;99.90;;;;;;4965433;28;20085;-68
2022/07/18 05:38:22;;;;;;;14.35;8.57;;;16.40;99.90;;;;;;4952762;28;20046;-68
2022/07/18 05:40:48;;;;;;;15.30;8.27;;;16.50;99.90;;;;;;4932564;29;20043;-68
2022/07/18 05:43:13;;;;;;;15.63;8.52;;;16.50;99.90;;;;;;4949772;28;20047;-68
2022/07/18 05:45:39;;;;;;;13.93;8.50;;;16.60;99.90;;;;;;4948989;28;20050;-67
2022/07/18 06:11:23;;;;;;;13.77;7.35;;;18.10;99.90;;;;;;5542001;23;20050;-68
2022/07/18 06:13:49;;;;;;;14.45;6.47;;;18.10;99.90;;;;;;4992509;28;20046;-66
2022/07/18 06:16:14;;;;;;;12.25;6.65;;;18.10;99.90;;;;;;5001565;28;20034;-67
2022/07/18 06:18:40;;;;;;;13.88;7.03;;;18.20;99.90;;;;;;4969499;28;20057;-67
2022/07/18 06:31:27;;;;;;;12.15;6.03;;;18.80;99.90;;;;;;5659275;23;20527;-68
2022/07/18 07:20:30;;;;;;;10.88;4.72;;;20.20;99.90;;;;;;5790482;23;20054;-70
2022/07/18 07:22:57;;;;;;;11.88;5.15;;;20.40;99.90;;;;;;4962878;28;20053;-69
2022/07/18 07:25:25;;;;;;;10.70;4.70;;;20.60;99.90;;;;;;4987125;28;20384;-66
2022/07/18 07:33:03;;;;;;;7.57;3.20;;;21.00;99.90;;;;;;5565327;23;19930;-67
2022/07/18 07:35:30;;;;;;;11.68;3.33;;;21.20;99.90;;;;;;4999201;28;20478;-67
2022/07/18 07:37:57;;;;;;;5.55;2.90;;;21.20;99.90;;;;;;5001850;28;20512;-66
2022/07/18 07:40:25;;;;;;;7.25;2.80;;;21.30;99.90;;;;;;4974995;28;20522;-67
2022/07/18 07:42:51;;;;;;;4.57;2.90;;;21.40;99.90;;;;;;4989577;28;20042;-67
2022/07/18 07:58:25;;;;;;;7.32;3.28;;;21.70;99.90;;;;;;6037007;23;20049;-67
2022/07/18 08:00:51;;;;;;;6.90;3.00;;;21.90;99.90;;;;;;4923341;29;20047;-67
2022/07/18 08:03:18;;;;;;;5.35;2.60;;;22.10;99.70;;;;;;4934955;29;20047;-67
2022/07/18 08:05:46;;;;;;;6.32;2.50;;;22.10;99.20;;;;;;4926120;29;20381;-67
2022/07/18 08:08:12;;;;;;;4.20;2.40;;;22.30;99.50;;;;;;4909931;29;20114;-67
2022/07/18 08:10:38;;;;;;;7.82;2.70;;;22.40;98.90;;;;;;4933661;29;20492;-67
2022/07/18 08:24:33;;;;;;;4.07;2.70;;;22.70;96.80;;;;;;5387284;23;20052;-67
2022/07/18 08:27:01;;;;;;;8.63;3.17;;;22.80;97.10;;;;;;4917086;29;20051;-68
2022/07/18 08:29:26;;;;;;;6.13;2.65;;;22.80;97.40;;;;;;4932497;29;20147;-68
2022/07/18 08:31:52;;;;;;;6.50;2.72;;;22.80;97.80;;;;;;4935870;29;20579;-68
2022/07/18 08:34:17;;;;;;;9.60;2.92;;;22.90;97.50;;;;;;4939925;29;20044;-67
2022/07/18 08:36:43;;;;;;;7.68;3.10;;;23.00;97.60;;;;;;4935376;29;20098;-68
2022/07/18 08:39:10;;;;;;;8.43;2.80;;;23.10;98.00;;;;;;4933432;29;20119;-67
2022/07/18 08:44:12;;;;;;;7.57;2.53;;;23.40;97.40;;;;;;5242040;23;20102;-66
2022/07/18 08:46:39;;;;;;;6.32;2.85;;;23.50;96.20;;;;;;4965394;28;20078;-65
2022/07/18 08:49:07;;;;;;;6.60;2.88;;;23.60;95.80;;;;;;4976136;28;20058;-66
2022/07/18 08:51:34;;;;;;;8.77;2.78;;;23.60;94.30;;;;;;4965608;28;20027;-66
2022/07/18 08:54:01;;;;;;;9.43;3.13;;;23.80;94.90;;;;;;4948374;28;20062;-66
2022/07/18 08:56:27;;;;;;;7.88;2.95;;;23.80;94.30;;;;;;4954915;28;20035;-66
2022/07/18 08:58:54;;;;;;;4.55;3.13;;;23.80;94.90;;;;;;4949923;28;20133;-66
2022/07/18 09:01:19;;;;;;;5.82;3.10;;;23.80;95.60;;;;;;4953028;28;20035;-67
2022/07/18 09:04:14;;;;;;;9.15;3.53;;;23.90;96.50;;;;;;4946976;23;20519;-67
2022/07/18 09:06:45;;;;;;;10.07;3.17;;;23.90;95.50;;;;;;4939776;29;20046;-66
2022/07/18 09:09:12;;;;;;;8.37;2.87;;;23.90;92.50;;;;;;4915310;29;20520;-64
2022/07/18 09:12:09;;;;;;;6.90;3.40;;;24.00;94.90;;;;;;4946313;29;20036;-64
2022/07/18 09:14:43;;;;;;;8.13;2.78;;;24.10;93.80;;;;;;4923557;29;20131;-64
2022/07/18 09:17:21;;;;;;;5.82;3.00;;;24.30;93.80;;;;;;4920563;29;20039;-64
2022/07/18 09:19:58;;;;;;;7.25;2.95;;;24.50;94.50;;;;;;4941974;29;20098;-65
2022/07/18 09:22:25;;;;;;;5.07;2.90;;;24.50;93.70;;;;;;4931462;29;20044;-65
2022/07/18 09:24:57;;;;;;;6.95;2.70;;;24.70;94.40;;;;;;4925687;29;20119;-65
2022/07/18 09:27:41;;;;;;;7.55;3.00;;;24.80;92.80;;;;;;4937110;29;20526;-64
2022/07/18 09:30:20;;;;;;;6.22;2.78;;;24.80;89.50;;;;;;4931993;29;20028;-63
2022/07/18 09:33:02;;;;;;;4.43;2.45;;;24.90;93.20;;;;;;4932817;29;20036;-65
2022/07/18 09:35:29;;;;;;;6.10;2.63;;;25.00;91.10;;;;;;4933086;29;20048;-66
2022/07/18 09:38:00;;;;;;;6.22;2.53;;;25.10;92.80;;;;;;4912897;29;20075;-66
2022/07/18 09:40:34;;;;;;;6.97;2.67;;;25.30;91.80;;;;;;4915657;29;20540;-66
2022/07/18 09:43:06;;;;;;;5.20;2.50;;;25.50;91.70;;;;;;4950844;28;20047;-66
2022/07/18 09:45:34;;;;;;;4.00;2.20;;;25.70;90.80;;;;;;4952169;29;20042;-65
2022/07/18 09:48:01;;;;;;;6.55;2.60;;;25.70;88.80;;;;;;4932711;29;20046;-66
2022/07/18 09:50:40;;;;;;;5.03;2.35;;;25.70;85.80;;;;;;4938037;29;20036;-65
2022/07/18 09:53:25;;;;;;;5.30;2.58;;;25.80;86.50;;;;;;4932198;29;20527;-66
2022/07/18 09:56:06;;;;;;;6.00;2.60;;;25.80;88.30;;;;;;4926441;29;20044;-66
2022/07/18 09:58:33;;;;;;;;;;;25.90;84.10;;;;;;4915756;29;20134;-66
2022/07/18 10:01:00;;;;;;;6.57;2.38;;;25.90;83.00;;;;;;4942870;29;19919;-66
2022/07/18 10:03:27;;;;;;;4.18;2.42;;;26.00;89.50;;;;;;4935760;29;20040;-66
2022/07/18 10:05:54;;;;;;;6.97;2.53;;;26.10;87.30;;;;;;4932435;29;20044;-66
2022/07/18 10:08:22;;;;;;;6.13;2.38;;;26.30;88.00;;;;;;4934732;29;20035;-66
2022/07/18 10:10:50;;;;;;;6.03;2.72;;;26.50;88.00;;;;;;4938366;29;20099;-66
2022/07/18 10:13:18;;;;;;;6.60;2.53;;;26.60;87.50;;;;;;4936413;29;20039;-66
2022/07/18 10:15:45;;;;;;;4.20;2.28;;;26.70;85.70;;;;;;4928541;29;20086;-66
2022/07/18 10:18:13;;;;;;;8.23;2.45;;;26.70;84.70;;;;;;4918946;29;20044;-66
2022/07/18 10:20:46;;;;;;;9.15;2.40;;;26.80;83.90;;;;;;4936495;29;20054;-66
2022/07/18 10:23:24;;;;;;;5.20;2.40;;;26.90;81.60;;;;;;4931497;29;20040;-66
2022/07/18 10:26:21;;;;;;;6.65;2.53;;;27.00;77.50;;;;;;4931769;29;20044;-65
2022/07/18 10:28:59;;;;;;;7.60;2.88;;;27.00;75.20;;;;;;4933927;29;20044;-66
2022/07/18 10:31:37;;;;;;;4.93;2.90;;;26.90;71.30;;;;;;4930271;29;20115;-66
2022/07/18 10:34:11;;;;;;;7.35;2.63;;;26.90;70.50;;;;;;4934825;29;20044;-66
2022/07/18 10:36:41;;;;;;;5.22;2.35;;;27.10;76.60;;;;;;4918650;29;20039;-66
2022/07/18 10:39:12;;;;;;;5.85;2.58;;;27.10;70.90;;;;;;4934149;29;20032;-66
2022/07/18 10:41:41;;;;;;;5.40;2.80;;;27.00;69.50;;;;;;4933448;29;20055;-66
2022/07/18 10:44:25;;;;;;;6.70;2.80;;;27.10;73.10;;;;;;4935237;29;20047;-66
2022/07/18 10:47:02;;;;;;;7.82;3.00;;;27.20;64.50;;;;;;4936173;29;20095;-66
2022/07/18 10:49:49;;;;;;;6.22;3.13;;;27.30;63.60;;;;;;4933335;29;20071;-67
2022/07/18 10:52:24;;;;;;;7.57;2.70;;;27.40;62.00;;;;;;4933882;29;20040;-65
2022/07/18 10:55:04;;;;;;;6.03;2.72;;;27.60;60.70;;;;;;4950304;29;20086;-66
2022/07/18 10:58:06;;;;;;;7.05;3.22;;;27.60;62.00;;;;;;4940380;29;20047;-66
2022/07/18 11:00:38;;;;;;;4.20;2.55;;;27.90;63.40;;;;;;4931005;29;20123;-66
2022/07/18 11:03:11;;;;;;;5.82;2.70;;;27.90;63.60;;;;;;4926329;29;20086;-66
2022/07/18 11:05:45;;;;;;;6.93;2.50;;;28.00;65.10;;;;;;4930212;29;20448;-66
2022/07/18 11:08:14;;;;;;;8.38;2.75;;;27.90;62.10;;;;;;4929294;29;20092;-65
2022/07/18 11:13:32;;;;;;;4.65;2.75;;;28.10;62.20;;;;;;4931909;29;20043;-66
2022/07/18 11:16:12;;;;;;;5.78;2.55;;;28.30;60.90;;;;;;4929387;29;20579;-65
2022/07/18 11:18:42;;;;;;;4.75;2.70;;;28.30;63.20;;;;;;4932358;29;20050;-66
2022/07/18 11:21:32;;;;;;;4.90;3.05;;;28.30;62.00;;;;;;4931614;29;20047;-66
2022/07/18 11:24:08;;;;;;;;;;;28.50;58.10;;;;;;4921055;29;20048;-66
2022/07/18 11:26:36;;;;;;;8.57;2.80;;;28.60;61.20;;;;;;4924158;29;20293;-67
2022/07/18 11:29:10;;;;;;;5.68;2.60;;;28.80;64.60;;;;;;4930362;29;20051;-66
2022/07/18 11:31:54;;;;;;;6.50;2.67;;;28.80;60.20;;;;;;4931286;29;20071;-65
2022/07/18 11:34:21;;;;;;;5.90;2.65;;;28.70;60.80;;;;;;4931627;29;20492;-66
2022/07/18 11:36:48;;;;;;;6.47;2.90;;;28.60;60.10;;;;;;4929094;29;20409;-65
2022/07/18 11:39:27;;;;;;;4.90;2.63;;;28.60;59.00;;;;;;4931978;29;20040;-66
2022/07/18 11:41:53;;;;;;;7.30;2.80;;;28.80;61.00;;;;;;4927793;29;20091;-64
2022/07/18 11:44:39;;;;;;;4.63;2.70;;;28.90;59.80;;;;;;4931987;29;20036;-65
2022/07/18 11:47:07;;;;;;;5.57;2.80;;;29.00;60.20;;;;;;4933811;29;20046;-65
2022/07/18 11:49:34;;;;;;;4.60;2.75;;;29.00;57.80;;;;;;4930953;29;20072;-65
2022/07/18 11:52:00;;;;;;;7.05;3.00;;;29.20;59.40;;;;;;4933512;29;20048;-65
2022/07/18 11:54:28;;;;;;;5.38;2.90;;;29.20;59.30;;;;;;4934651;29;20050;-65
2022/07/18 11:56:54;;;;;;;6.75;2.70;;;29.20;59.40;;;;;;4934666;29;20051;-64
2022/07/18 11:59:21;;;;;;;8.27;3.17;;;29.30;59.60;;;;;;4930481;29;20035;-64
2022/07/18 12:01:52;;;;;;;7.35;3.05;;;29.40;58.50;;;;;;4951687;29;20042;-65
2022/07/18 12:04:23;;;;;;;8.20;2.85;;;29.60;58.20;;;;;;4953147;28;20499;-65
2022/07/18 12:07:18;;;;;;;5.97;2.83;;;29.70;57.20;;;;;;4946997;29;20519;-65
2022/07/18 12:09:44;;;;;;;8.02;2.92;;;29.70;54.40;;;;;;4930511;29;20492;-65
2022/07/18 12:12:12;;;;;;;6.57;3.22;;;29.90;58.50;;;;;;4933975;29;20040;-65
2022/07/18 12:14:38;;;;;;;5.30;2.83;;;30.20;57.80;;;;;;4931147;29;20051;-64
2022/07/18 12:17:05;;;;;;;6.00;3.15;;;30.50;58.70;;;;;;4926411;29;20035;-65
2022/07/18 12:19:40;;;;;;;5.63;2.90;;;30.80;58.70;;;;;;4933859;29;20452;-65
2022/07/18 12:22:10;;;;;;;7.65;3.30;;;30.80;54.60;;;;;;4933785;29;20067;-64
2022/07/18 12:24:52;;;;;;;8.50;3.15;;;30.70;53.40;;;;;;4937961;29;20039;-65
2022/07/18 12:27:34;;;;;;;7.75;3.20;;;30.80;51.30;;;;;;4931326;29;20051;-65
2022/07/18 12:30:18;;;;;;;5.57;3.22;;;31.00;52.30;;;;;;4934119;29;20090;-64
2022/07/18 12:32:54;;;;;;;5.68;3.05;;;30.90;50.80;;;;;;4923239;29;20381;-65
2022/07/18 12:35:31;;;;;;;7.05;2.90;;;31.00;53.70;;;;;;4933264;29;20043;-65
2022/07/18 12:38:08;;;;;;;4.40;3.28;;;31.00;53.10;;;;;;4933621;29;20041;-64
2022/07/18 12:40:54;;;;;;;7.40;3.10;;;31.10;51.50;;;;;;4932868;29;20083;-64
2022/07/18 12:43:26;;;;;;;9.02;3.38;;;31.40;52.20;;;;;;4937656;28;20114;-65
2022/07/18 12:45:53;;;;;;;8.93;3.15;;;31.60;51.70;;;;;;4927327;29;20044;-65
2022/07/18 12:48:19;;;;;;;6.68;3.40;;;31.80;51.10;;;;;;4926030;29;20054;-64
2022/07/18 12:50:45;;;;;;;10.38;3.53;;;31.70;51.60;;;;;;4937767;29;20388;-65
2022/07/18 12:53:12;;;;;;;5.80;3.20;;;31.80;51.50;;;;;;4932322;29;20028;-64
2022/07/18 12:55:39;;;;;;;6.88;3.10;;;32.00;52.20;;;;;;4932891;29;20122;-64
2022/07/18 12:58:06;;;;;;;6.72;3.20;;;31.90;50.60;;;;;;4929998;29;20094;-65
2022/07/18 13:00:32;;;;;;;6.82;3.13;;;32.00;51.60;;;;;;4928411;29;20560;-64
2022/07/18 13:02:59;;;;;;;4.80;3.13;;;31.80;51.40;;;;;;4950568;28;20107;-64
2022/07/18 13:05:26;;;;;;;5.95;3.20;;;31.60;50.10;;;;;;4948522;29;20043;-64
2022/07/18 13:07:52;;;;;;;4.93;2.80;;;31.50;50.60;;;;;;4934234;29;20071;-64
2022/07/18 13:10:18;;;;;;;8.05;3.17;;;31.50;51.20;;;;;;4933137;29;20067;-64
2022/07/18 13:12:44;;;;;;;8.70;3.00;;;31.30;50.80;;;;;;4931034;29;20040;-64
2022/07/18 13:15:09;;;;;;;6.32;2.85;;;31.20;51.60;;;;;;4941349;29;20105;-64
2022/07/18 13:17:35;;;;;;;8.05;3.10;;;31.00;51.40;;;;;;4932583;29;20478;-64
2022/07/18 13:20:01;;;;;;;5.22;3.00;;;30.90;50.80;;;;;;4932942;29;20042;-64
2022/07/18 13:22:27;;;;;;;4.35;2.70;;;30.80;51.40;;;;;;4925447;29;20050;-64
2022/07/18 13:24:52;;;;;;;5.57;3.47;;;31.00;50.90;;;;;;4930766;29;20051;-64
2022/07/18 13:27:19;;;;;;;5.40;3.00;;;31.30;51.60;;;;;;4932966;29;20488;-64
2022/07/18 13:29:46;;;;;;;6.93;3.33;;;31.40;50.40;;;;;;4932932;29;20043;-64
2022/07/18 13:32:12;;;;;;;6.72;3.20;;;31.30;51.20;;;;;;4928047;29;20119;-64
2022/07/18 13:34:38;;;;;;;4.55;2.88;;;31.30;50.30;;;;;;4929894;29;20035;-64
2022/07/18 13:37:03;;;;;;;7.18;3.05;;;31.30;51.20;;;;;;4937020;29;20031;-64
2022/07/18 13:39:29;;;;;;;5.72;3.17;;;31.10;50.80;;;;;;4944998;29;20498;-64
2022/07/18 13:41:55;;;;;;;4.70;3.00;;;30.80;50.40;;;;;;4926424;29;20095;-64
2022/07/18 13:44:20;;;;;;;5.68;3.00;;;30.60;50.90;;;;;;4936435;29;20083;-64
2022/07/18 13:46:46;;;;;;;6.07;3.10;;;30.30;51.20;;;;;;4937104;29;20048;-64
2022/07/18 13:49:12;;;;;;;6.82;3.03;;;30.10;50.80;;;;;;4943442;29;20412;-64
2022/07/18 13:51:38;;;;;;;7.45;3.13;;;30.10;50.40;;;;;;4935933;29;20554;-64
2022/07/18 13:54:05;;;;;;;5.25;3.53;;;30.00;51.90;;;;;;4936479;29;20044;-64
2022/07/18 13:56:31;;;;;;;6.10;3.33;;;30.00;52.70;;;;;;4936570;29;20094;-64
2022/07/18 13:58:57;;;;;;;8.90;3.47;;;29.90;53.00;;;;;;4932515;29;20055;-64
2022/07/18 14:01:23;;;;;;;6.10;2.80;;;29.90;54.00;;;;;;4941137;29;20438;-64
2022/07/18 14:03:49;;;;;;;4.40;2.90;;;30.00;54.80;;;;;;4955339;28;20055;-64
2022/07/18 14:06:15;;;;;;;6.68;2.95;;;30.10;54.20;;;;;;4942440;29;20027;-64
2022/07/18 14:08:40;;;;;;;7.15;3.00;;;30.60;54.60;;;;;;4936047;29;20484;-64
2022/07/18 14:11:06;;;;;;;7.68;3.10;;;31.00;53.20;;;;;;4935778;29;20075;-64
2022/07/18 14:13:32;;;;;;;4.40;3.15;;;31.10;51.50;;;;;;4926812;29;20031;-64
2022/07/18 14:15:57;;;;;;;6.95;3.20;;;31.00;50.80;;;;;;4934177;29;20047;-64
2022/07/18 14:18:23;;;;;;;6.07;3.40;;;30.80;51.40;;;;;;4934329;29;20040;-64
2022/07/18 14:20:49;;;;;;;4.72;3.30;;;30.70;52.10;;;;;;4934488;29;20040;-64
2022/07/18 14:23:14;;;;;;;6.38;3.15;;;30.70;51.70;;;;;;4931622;29;20036;-64
2022/07/18 14:25:40;;;;;;;5.82;2.95;;;30.70;52.60;;;;;;4933852;29;20138;-64
2022/07/18 14:28:06;;;;;;;6.85;3.13;;;31.20;53.50;;;;;;4949147;29;20035;-64
2022/07/18 14:30:32;;;;;;;4.28;2.97;;;31.60;50.90;;;;;;4933264;29;20531;-64
2022/07/18 14:32:58;;;;;;;4.60;3.00;;;31.60;50.50;;;;;;4935417;29;20032;-64
2022/07/18 14:35:24;;;;;;;6.38;3.05;;;31.40;50.10;;;;;;4933246;29;20035;-64
2022/07/18 14:37:49;;;;;;;5.78;2.97;;;31.20;51.30;;;;;;4935435;29;20412;-64
2022/07/18 14:40:16;;;;;;;4.82;2.90;;;31.00;51.80;;;;;;4935792;29;20035;-64
2022/07/18 14:42:41;;;;;;;4.47;2.95;;;31.00;52.30;;;;;;4935265;29;20043;-64
2022/07/18 14:45:08;;;;;;;4.80;2.88;;;31.40;53.10;;;;;;4930528;29;20032;-64
2022/07/18 14:47:35;;;;;;;4.90;2.90;;;32.20;51.90;;;;;;4912774;29;20630;-64
2022/07/18 14:50:02;;;;;;;5.25;3.00;;;33.10;50.00;;;;;;4934613;29;20064;-64
2022/07/18 14:52:28;;;;;;;7.82;3.20;;;33.40;49.00;;;;;;4935374;29;20082;-64
2022/07/18 14:54:53;;;;;;;5.82;2.95;;;33.20;47.90;;;;;;4932929;29;20071;-64
2022/07/18 14:57:19;;;;;;;4.88;3.00;;;33.30;49.00;;;;;;4935009;29;20040;-64
2022/07/18 14:59:45;;;;;;;7.15;3.05;;;33.90;48.60;;;;;;4935408;29;20415;-64
2022/07/18 15:02:12;;;;;;;5.45;2.88;;;34.30;48.20;;;;;;4932583;29;20032;-64
2022/07/18 15:04:38;;;;;;;5.05;2.95;;;35.00;47.20;;;;;;5037925;23;20050;-66
2022/07/18 15:07:04;;;;;;;5.63;3.08;;;35.30;46.60;;;;;;5011860;28;20096;-68
2022/07/18 15:09:30;;;;;;;5.82;3.47;;;34.80;46.10;;;;;;5013107;28;20034;-72
2022/07/18 15:11:56;;;;;;;5.72;3.10;;;34.50;47.70;;;;;;4991136;28;20049;-67
2022/07/18 15:14:21;;;;;;;4.80;3.10;;;34.20;48.70;;;;;;5003194;28;20037;-68
2022/07/18 15:16:47;;;;;;;5.53;3.10;;;34.40;49.10;;;;;;5012719;28;20042;-67
2022/07/18 15:19:13;;;;;;;5.88;3.03;;;34.80;47.50;;;;;;4996780;28;20121;-67
2022/07/18 15:21:38;;;;;;;6.70;2.75;;;35.00;46.70;;;;;;5001749;28;20674;-68
2022/07/18 15:24:04;;;;;;;4.20;2.72;;;35.50;45.80;;;;;;5252224;23;20070;-67
2022/07/18 15:26:30;;;;;;;5.88;2.95;;;35.80;45.00;;;;;;4949141;29;20036;-66
2022/07/18 15:28:56;;;;;;;5.25;3.08;;;36.20;45.00;;;;;;4920686;29;20413;-68
2022/07/18 15:31:23;;;;;;;5.78;2.72;;;36.40;44.00;;;;;;4945032;28;20047;-67
2022/07/18 15:33:49;;;;;;;5.32;2.75;;;36.60;42.80;;;;;;4951337;28;20043;-71
2022/07/18 15:36:15;;;;;;;7.38;2.53;;;36.90;43.90;;;;;;4915218;29;20039;-70
2022/07/18 15:38:40;;;;;;;5.80;2.60;;;37.20;42.90;;;;;;4983890;23;20142;-67
2022/07/18 15:41:10;;;;;;;6.82;2.70;;;37.50;42.30;;;;;;4970268;28;20049;-67
2022/07/18 15:43:38;;;;;;;15.85;9.63;;;37.60;41.30;;;;;;4964060;28;20038;-68
2022/07/18 15:46:04;;;;;;;7.68;5.00;;;37.80;41.90;;;;;;4969898;28;20043;-67
2022/07/18 15:48:30;;;;;;;10.15;5.38;;;37.90;41.50;;;;;;4970371;28;20042;-67
2022/07/18 15:50:55;;;;;;;4.45;3.10;;;38.10;41.40;;;;;;4959531;28;20163;-67
2022/07/18 15:53:21;;;;;;;6.03;3.05;;;38.40;41.20;;;;;;4939719;28;20066;-64
2022/07/18 15:55:47;;;;;;;6.13;4.30;;;38.60;42.30;;;;;;4947322;28;20043;-66
2022/07/18 15:58:12;;;;;;;5.75;3.10;;;38.20;42.30;;;;;;4953493;28;20162;-65
2022/07/18 16:00:38;;;;;;;5.60;2.38;;;37.90;41.30;;;;;;4949867;29;20075;-66
2022/07/18 16:03:04;;;;;;;6.68;2.60;;;37.90;40.90;;;;;;4949214;28;20130;-65
2022/07/18 16:05:29;;;;;;;5.38;2.70;;;37.70;40.50;;;;;;4953076;28;20483;-65
2022/07/18 16:07:55;;;;;;;4.10;2.65;;;37.50;39.90;;;;;;4951289;29;20043;-65
2022/07/18 16:10:21;;;;;;;4.40;2.35;;;38.00;40.70;;;;;;4940658;28;20054;-65
2022/07/18 16:12:46;;;;;;;3.25;2.22;;;38.40;41.20;;;;;;4949676;28;20039;-65
2022/07/18 16:15:12;;;;;;;9.77;4.18;;;38.80;41.00;;;;;;4953258;29;20039;-66
2022/07/18 16:17:38;;;;;;;5.13;2.50;;;39.20;39.90;;;;;;4945483;29;20404;-66
2022/07/18 16:20:06;;;;;;;4.55;2.70;;;39.60;40.00;;;;;;4940352;28;20121;-66
2022/07/18 16:22:33;;;;;;;6.63;2.67;;;40.00;40.40;;;;;;4952601;28;20079;-65
2022/07/18 16:24:58;;;;;;;3.65;2.40;;;40.20;39.80;;;;;;4948096;28;20044;-66